To NAV CANADA Home Page Login to a new session Search on AWWS site Disclaimer Vers la page française équivalente Tips FAQ What's new on the site To the Forecasts and Observations / NOTAM section To "File a Flight Plan" website Publications and other links Update of the User's profile FIC Telephone Numbers My Weather Data Folder Route Weather Data Regional Weather Data Local Weather Data To the Forecasts and Observations / NOTAM section
Request Generated 07/18/2019 at 15:13:40 UTC . Weather information available at that time is displayed.

METAR/TAF

If you find any discrepancies between the coded METAR/TAF and the plain language METAR/TAF please use the coded METAR/TAF. LWIS bulletins are not decoded in plain language.

TORONTO/BILLY BISHOP TORONTO CITY AIRPORT/ON    (show WxCam)

METAR CYTZ 181300Z AUTO 07009KT 9SM OVC030 22/19 A2996 RMK SLP146 DENSITY ALT 1 0FT=
METAR
LOCATION
CYTZ - TORONTO/BILLY BISHOP TORONTO CITY A
DATE - TIME
18 JULY 2019 - 1300 UTC
WIND
70 TRUE @ 9  KNOTS
VISIBILITY
9 STAT.  MILES
RUNWAY VISUAL RANGE
WEATHER
CLOUDINESS
OVERCAST 3000  FT
TEMP / DEWPOINT
22 C / 19 C
ALTIMETER
29.96 IN HG
RECENT WEATHER
WIND SHEAR

METAR CYTZ 181200Z AUTO 07012KT 9SM OVC030 21/19 A2994 RMK SLP140 DENSITY ALT 1 0FT=
METAR
LOCATION
CYTZ - TORONTO/BILLY BISHOP TORONTO CITY A
DATE - TIME
18 JULY 2019 - 1200 UTC
WIND
70 TRUE @ 12  KNOTS
VISIBILITY
9 STAT.  MILES
RUNWAY VISUAL RANGE
WEATHER
CLOUDINESS
OVERCAST 3000  FT
TEMP / DEWPOINT
21 C / 19 C
ALTIMETER
29.94 IN HG
RECENT WEATHER
WIND SHEAR

TAF CYTZ 181338Z 1814/1914 07010KT P6SM OVC030 FM181700 18005KT P6SM SCT030 FM182100 18010KT P6SM SKC FM190700 21008KT P6SM SCT040 FM191200 23010KT P6SM SCT030 RMK FCST BASED ON AUTO OBS. NXT FCST BY 182000Z=
TAF
LOCATION

CYTZ - TORONTO/BILLY BISHOP TORONTO CITY AIRPORT/ON
VALIDITY [UTC]
18 JUL - 1338 to
19 JUL - 1400
 
TIMES
[UTC]
WIND
[DEGREES TRUE]
VISIBILITY
[STAT. MILES]
WEATHER
CLOUDINESS
[FEET AGL]
 
18 JUL - 1400 to
18 JUL - 1700
70 @ 10 KNOTS
6+
NIL
3000 OVERCAST
 
18 JUL - 1700 to
18 JUL - 2100
180 @ 5 KNOTS
6+
NIL
3000 SCATTERED
 
18 JUL - 2100 to
19 JUL - 0700
180 @ 10 KNOTS
6+
NIL
CLEAR SKY
 
19 JUL - 0700 to
19 JUL - 1200
210 @ 8 KNOTS
6+
NIL
4000 SCATTERED
 
19 JUL - 1200 to
19 JUL - 1400
230 @ 10 KNOTS
6+
NIL
3000 SCATTERED
REMARKS
THE FORECAST IS BASED ON AUTOMATIC OBSERVATIONS - THE NEXT FORECAST WILL BE ISSUED BY 2000 UTC ON DAY 18


Your time UTC time
Weather data provided by Environment Canada and NAV CANADA